Impacts TAF Board
For situational awareness. Not to be used for flight planning purposes.
IDs:

KSAT - San Antonio Intl, TX, US

Issued at 2324 UTC 09 Dec 2022
Updated at 0121 UTC 10 Dec 2022
Potential Impact None Slight Moderate High
Time0051Z 10/02Z 10/03Z 10/04Z 10/05Z 10/06Z 10/07Z 10/08Z 10/09Z 10/10Z 10/11Z 10/12Z 10/13Z 10/14Z>>
Type OBS PRVL PRVL PRVL PRVL PRVL PRVL PRVL PRVL PRVL PRVL PRVL PRVL PRVL
VIS 10 >6 >6 5 5 5 5 5 5 5 2 2 2 2
CIG -- 250 250 15 15 15 15 15 15 15 6 6 6 6
Cover FEW BKN BKN BKN BKN BKN BKN BKN BKN BKN OVC OVC OVC OVC
FltCat VFR VFR VFR MVFR MVFR MVFR MVFR MVFR MVFR MVFR IFR IFR IFR IFR
WX -- -- -- BR BR BR BR BR BR BR BR BR BR BR
WDir 140 140 140 150 150 150 150 150 150 150 170 170 170 170
WSpd 8 8 8 6 6 6 6 6 6 6 5 5 5 5
WGst -- -- -- -- -- -- -- -- -- -- -- -- -- --
WSHgt -- -- -- -- -- -- -- -- -- -- -- -- -- --
WSDir -- -- -- -- -- -- -- -- -- -- -- -- -- --
WSSpd -- -- -- -- -- -- -- -- -- -- -- -- -- --
R04/22
XWnd -8 -8 -8 -6 -6 -6 -6 -6 -6 -6 -4 -4 -4 -4
HWnd -1 -1 -1 -2 -2 -2 -2 -2 -2 -2 -3 -3 -3 -3
R13/31
XWnd -1 -1 -1 -2 -2 -2 -2 -2 -2 -2 -3 -3 -3 -3
HWnd 8 8 8 6 6 6 6 6 6 6 4 4 4 4
Raw TAF
KSAT 092324Z 1000/1106 14008KT P6SM SCT040 BKN250
  FM100400 15006KT 5SM BR BKN015
  FM101100 17005KT 2SM BR OVC006
  FM101500 17007KT P6SM OVC015
  FM101900 16009KT P6SM BKN040
  FM110300 14004KT P6SM BKN028


Raw METAR
KSAT 100051Z 14008KT 10SM FEW040 FEW250 23/17 A3003 RMK AO2 SLP154 T02280167
KSAT 092351Z 14011KT 10SM SCT042 SCT250 24/17 A3002 RMK AO2 SLP148 T02440167 10261 20233 55006
KSAT 092251Z 14008KT 10SM SCT040 BKN250 26/17 A3001 RMK AO2 SLP145 T02560167

METAR Board
Radar Display
Forecast Discussion
For situational awareness. Not to be used for flight planning purposes.